Terminal Aerodrome Forecast
Issued by NWS

Home | Current Version | Previous Version | Text Only | Print | Product List | Glossary On
Versions: 1 2 3 4 5 6 7 8 9 10 11 12 13 14 15
000
FTUS43 KDTX 290736 AAA
TAFYIP
TAF AMD
KYIP 290736Z 2908/3006 19012KT P6SM SCT060 OVC120 WS015/24045KT
     FM291300 21014G22KT P6SM SCT050 BKN150
     FM291700 22018G26KT P6SM BKN045
     FM300100 21012KT P6SM SCT040 BKN060 PROB30 3002/3006 2SM TSRA
      OVC035CB=

USA.gov is the U.S. government's official web portal to all federal, state and local government web resources and services.